createdAt,value
2019-02-16T00:02:24.875Z,4.17
2019-02-16T00:06:29.424Z,5.70
2019-02-16T00:10:33.946Z,5.20
2019-02-16T00:14:38.436Z,3.83
2019-02-16T00:18:43.043Z,3.20
2019-02-16T00:22:47.563Z,3.93
2019-02-16T00:26:52.086Z,4.47
2019-02-16T00:30:56.663Z,3.57
2019-02-16T00:35:01.163Z,2.80
2019-02-16T00:39:06.464Z,6.50
2019-02-16T00:43:10.980Z,4.07
2019-02-16T00:47:15.519Z,3.93
2019-02-16T00:51:20.060Z,5.03
2019-02-16T00:55:24.542Z,4.67
2019-02-16T00:59:29.065Z,5.07
2019-02-16T01:03:33.683Z,3.90
2019-02-16T01:07:38.248Z,3.93
2019-02-16T01:11:42.680Z,6.33
2019-02-16T01:15:47.203Z,6.07
2019-02-16T01:19:51.724Z,10.70
2019-02-16T01:23:56.259Z,7.37
2019-02-16T01:28:00.775Z,4.75
2019-02-16T01:32:05.279Z,5.40
2019-02-16T01:36:09.794Z,5.67
2019-02-16T01:40:14.324Z,4.23
2019-02-16T01:44:18.848Z,6.37
2019-02-16T01:48:23.329Z,5.70
2019-02-16T01:52:27.892Z,5.20
2019-02-16T01:56:32.396Z,5.53
2019-02-16T02:00:36.917Z,4.80
2019-02-16T02:04:41.548Z,5.60
2019-02-16T02:08:46.122Z,5.72
2019-02-16T02:12:50.641Z,5.00
2019-02-16T02:16:55.183Z,5.75
2019-02-16T02:20:59.709Z,5.40
2019-02-16T02:25:04.323Z,5.70
2019-02-16T02:29:08.817Z,4.77
2019-02-16T02:33:13.363Z,5.20
2019-02-16T02:37:17.892Z,5.17
2019-02-16T02:41:22.428Z,5.42
2019-02-16T02:45:26.957Z,4.50
2019-02-16T02:49:31.447Z,6.10
2019-02-16T02:53:35.978Z,5.35
2019-02-16T02:57:40.479Z,5.60
2019-02-16T03:01:45.027Z,7.75
2019-02-16T03:05:49.693Z,5.67
2019-02-16T03:09:54.188Z,5.30
2019-02-16T03:13:58.742Z,5.87
2019-02-16T03:18:03.267Z,5.75
2019-02-16T03:22:07.876Z,5.17
2019-02-16T03:26:36.947Z,5.17
2019-02-16T03:30:54.432Z,5.15
2019-02-16T03:35:13.456Z,4.55
2019-02-16T03:39:24.126Z,6.55
2019-02-16T03:43:28.667Z,6.90
2019-02-16T03:59:43.563Z,5.77
2019-02-16T04:03:48.207Z,5.33
2019-02-16T04:07:52.760Z,5.70
2019-02-16T04:11:57.263Z,5.95
2019-02-16T04:16:01.797Z,5.83
2019-02-16T04:20:06.779Z,5.30
2019-02-16T04:24:11.313Z,6.65
2019-02-16T04:28:15.843Z,5.93
2019-02-16T04:32:20.367Z,7.12
2019-02-16T04:36:24.879Z,7.13
2019-02-16T04:40:29.411Z,6.53
2019-02-16T04:44:33.934Z,5.83
2019-02-16T04:48:38.461Z,5.03
2019-02-16T04:52:42.947Z,4.63
2019-02-16T04:56:47.465Z,4.17
2019-02-16T05:00:51.996Z,6.20
2019-02-16T05:04:56.560Z,6.43
2019-02-16T05:12:37.812Z,4.33
2019-02-16T05:16:42.343Z,5.37
2019-02-16T05:20:46.876Z,5.83
2019-02-16T05:24:51.419Z,4.47
2019-02-16T05:28:55.911Z,5.70
2019-02-16T05:33:00.462Z,6.17
2019-02-16T05:37:04.992Z,5.77
2019-02-16T05:41:09.520Z,5.23
2019-02-16T05:45:14.056Z,5.70
2019-02-16T05:49:18.543Z,61.23
2019-02-16T05:53:23.098Z,5.80
2019-02-16T05:57:27.617Z,6.93
2019-02-16T06:01:32.152Z,11.17
2019-02-16T06:05:36.724Z,8.63
2019-02-16T06:09:41.229Z,11.00
2019-02-16T06:13:45.763Z,5.97
2019-02-16T06:17:50.291Z,6.17
2019-02-16T06:21:54.829Z,8.70
2019-02-16T06:25:59.384Z,5.77
2019-02-16T06:30:03.867Z,6.43
2019-02-16T06:37:22.124Z,5.27
2019-02-16T06:45:08.086Z,8.60
2019-02-16T06:49:12.764Z,5.60
2019-02-16T06:53:17.390Z,7.23
2019-02-16T06:57:42.159Z,5.53
2019-02-16T07:03:20.099Z,6.60
2019-02-16T07:09:48.321Z,7.13
2019-02-16T07:13:52.954Z,5.90
2019-02-16T07:20:21.167Z,5.60
2019-02-16T07:24:25.698Z,12.53
2019-02-16T07:28:30.224Z,14.40
2019-02-16T07:32:34.730Z,5.67
2019-02-16T07:37:49.593Z,6.57
2019-02-16T07:41:54.123Z,7.40
2019-02-16T07:46:07.336Z,5.13
2019-02-16T07:50:29.389Z,6.07
2019-02-16T07:54:41.173Z,5.73
2019-02-16T07:59:10.748Z,6.97
2019-02-16T08:03:34.220Z,6.60
2019-02-16T08:08:07.032Z,5.97
2019-02-16T08:12:36.373Z,6.87
2019-02-16T08:17:05.297Z,6.83
2019-02-16T08:21:17.186Z,5.53
2019-02-16T08:25:43.404Z,5.10
2019-02-16T08:30:10.400Z,4.80
2019-02-16T08:34:27.477Z,5.70
2019-02-16T08:38:50.981Z,7.57
2019-02-16T08:43:13.145Z,5.33
2019-02-16T08:47:32.336Z,4.80
2019-02-16T08:51:55.085Z,5.57
2019-02-16T08:56:13.986Z,6.43
2019-02-16T09:00:40.299Z,5.93
2019-02-16T09:05:12.841Z,6.87
2019-02-16T09:09:35.292Z,4.83
2019-02-16T09:13:53.891Z,6.03
2019-02-16T09:18:23.666Z,7.13
2019-02-16T09:22:48.129Z,5.40
2019-02-16T09:27:31.289Z,5.93
2019-02-16T09:31:57.596Z,6.30
2019-02-16T09:36:16.429Z,6.37
2019-02-16T09:40:39.898Z,4.47
2019-02-16T09:45:02.143Z,6.70
2019-02-16T09:49:23.522Z,6.40
2019-02-16T09:53:49.877Z,6.17
2019-02-16T09:58:31.819Z,7.27
2019-02-16T10:02:46.313Z,7.13
2019-02-16T10:07:09.835Z,5.87
2019-02-16T10:11:32.220Z,6.03
2019-02-16T10:15:54.373Z,5.27
2019-02-16T10:20:11.857Z,6.60
2019-02-16T10:24:37.790Z,8.98
2019-02-16T10:28:51.591Z,8.55
2019-02-16T10:33:13.885Z,6.55
2019-02-16T10:37:36.018Z,7.87
2019-02-16T10:41:58.391Z,7.70
2019-02-16T10:46:21.869Z,8.23
2019-02-16T10:50:34.271Z,7.30
2019-02-16T10:54:56.651Z,7.77
2019-02-16T10:59:26.179Z,8.83
2019-02-16T11:03:52.466Z,8.23
2019-02-16T11:08:12.791Z,8.27
2019-02-16T11:12:36.265Z,10.60
2019-02-16T11:16:49.302Z,7.57
2019-02-16T11:21:22.102Z,8.60
2019-02-16T11:25:51.348Z,8.57
2019-02-16T11:30:26.890Z,10.07
2019-02-16T11:34:38.878Z,9.07
2019-02-16T11:39:08.095Z,10.30
2019-02-16T11:43:43.753Z,14.20
2019-02-16T11:48:16.048Z,13.80
2019-02-16T11:52:38.132Z,14.53
2019-02-16T11:56:56.184Z,9.83
2019-02-16T12:01:09.969Z,12.87
2019-02-16T12:05:28.739Z,13.50
2019-02-16T12:09:50.586Z,14.90
2019-02-16T12:14:12.733Z,13.50
2019-02-16T12:18:39.256Z,13.93
2019-02-16T12:22:53.167Z,19.80
2019-02-16T12:27:22.424Z,15.93
2019-02-16T12:31:51.859Z,15.60
2019-02-16T12:36:07.547Z,16.17
2019-02-16T12:40:21.953Z,14.53
2019-02-16T12:44:35.875Z,14.83
2019-02-16T12:48:59.795Z,19.00
2019-02-16T12:53:32.722Z,16.07
2019-02-16T12:57:51.744Z,14.67
2019-02-16T13:02:16.948Z,15.20
2019-02-16T13:06:39.205Z,15.10
2019-02-16T13:11:02.180Z,15.37
2019-02-16T13:15:16.817Z,14.17
2019-02-16T13:19:43.111Z,17.20
2019-02-16T13:24:08.194Z,16.23
2019-02-16T13:28:43.766Z,16.33
2019-02-16T13:33:08.451Z,15.30
2019-02-16T13:37:18.209Z,14.30
2019-02-16T13:41:57.069Z,17.00
2019-02-16T13:46:20.563Z,16.40
2019-02-16T13:50:33.512Z,14.63
2019-02-16T13:54:58.511Z,18.73
2019-02-16T13:59:20.696Z,13.67
2019-02-16T14:03:37.122Z,15.77
2019-02-16T14:08:03.499Z,14.73
2019-02-16T14:12:19.663Z,16.37
2019-02-16T14:16:43.177Z,12.50
2019-02-16T14:20:47.705Z,17.60
2019-02-16T14:24:54.960Z,14.70
2019-02-16T14:28:59.604Z,14.50
2019-02-16T14:33:04.169Z,16.17
2019-02-16T14:37:19.243Z,16.77
2019-02-16T14:41:23.784Z,21.83
2019-02-16T14:45:28.989Z,14.77
2019-02-16T14:49:33.543Z,15.03
2019-02-16T14:53:38.100Z,17.07
2019-02-16T14:57:42.659Z,13.53
2019-02-16T15:01:47.195Z,14.47
2019-02-16T15:05:51.867Z,13.40
2019-02-16T15:09:56.432Z,19.07
2019-02-16T15:14:01.153Z,14.23
2019-02-16T15:18:05.716Z,16.37
2019-02-16T15:22:10.252Z,14.83
2019-02-16T15:26:14.807Z,15.20
2019-02-16T15:30:19.547Z,14.03
2019-02-16T15:34:24.117Z,14.60
2019-02-16T15:38:28.761Z,16.03
2019-02-16T15:42:33.275Z,16.07
2019-02-16T15:46:37.819Z,16.13
2019-02-16T15:50:42.395Z,14.57
2019-02-16T15:54:46.957Z,16.57
2019-02-16T15:58:51.539Z,16.73
2019-02-16T16:02:56.026Z,14.00
2019-02-16T16:07:01.416Z,13.50
2019-02-16T16:11:09.522Z,14.90
2019-02-16T16:15:26.754Z,11.57
2019-02-16T16:19:46.483Z,14.67
2019-02-16T16:24:15.824Z,13.20
2019-02-16T16:28:45.600Z,13.43
2019-02-16T16:33:27.631Z,12.53
2019-02-16T16:37:51.125Z,14.60
2019-02-16T16:42:20.987Z,15.07
2019-02-16T16:46:44.865Z,13.30
2019-02-16T16:51:26.720Z,12.50
2019-02-16T16:55:43.406Z,11.07
2019-02-16T17:00:00.827Z,14.60
2019-02-16T17:04:24.289Z,13.70
2019-02-16T17:08:52.804Z,14.60
2019-02-16T17:13:07.184Z,14.83
2019-02-16T17:17:27.760Z,14.00
2019-02-16T17:21:51.239Z,15.23
2019-02-16T17:26:24.085Z,13.40
2019-02-16T17:30:47.684Z,12.40
2019-02-16T17:35:14.212Z,12.28
2019-02-16T17:39:37.703Z,12.82
2019-02-16T17:44:07.374Z,13.38
2019-02-16T17:50:32.050Z,11.73
2019-02-16T17:54:58.591Z,15.03
2019-02-16T17:59:11.787Z,14.85
2019-02-16T18:03:33.963Z,16.33
2019-02-16T18:08:15.679Z,15.72
2019-02-16T18:12:50.053Z,18.20
2019-02-16T18:17:31.785Z,17.35
2019-02-16T18:22:02.067Z,14.33
2019-02-16T18:26:23.026Z,14.78
2019-02-16T18:30:58.567Z,13.85
2019-02-16T18:35:13.460Z,15.32
2019-02-16T18:39:39.697Z,14.85
2019-02-16T18:44:09.204Z,13.93
2019-02-16T18:48:44.869Z,16.52
2019-02-16T18:53:11.347Z,18.67
2019-02-16T18:57:47.094Z,17.93
2019-02-16T19:02:16.679Z,19.03
2019-02-16T19:06:31.923Z,21.30
2019-02-16T19:11:04.604Z,19.48
2019-02-16T19:15:31.190Z,22.42
2019-02-16T19:20:10.174Z,20.25
2019-02-16T19:24:30.475Z,19.90
2019-02-16T19:28:52.617Z,19.10
2019-02-16T19:33:18.967Z,19.77
2019-02-16T19:37:32.500Z,20.77
2019-02-16T19:42:05.342Z,21.53
2019-02-16T19:46:47.123Z,20.90
2019-02-16T19:51:10.207Z,21.87
2019-02-16T19:55:42.763Z,18.32
2019-02-16T20:00:12.318Z,20.63
2019-02-16T20:04:34.553Z,21.20
2019-02-16T20:08:48.899Z,20.68
2019-02-16T20:13:18.745Z,19.95
2019-02-16T20:17:51.203Z,22.98
2019-02-16T20:22:20.768Z,21.37
2019-02-16T20:26:34.435Z,23.03
2019-02-16T20:30:49.031Z,23.27
2019-02-16T20:35:11.172Z,21.52
2019-02-16T20:39:46.854Z,24.90
2019-02-16T20:44:16.317Z,20.12
2019-02-16T20:48:32.005Z,21.75
2019-02-16T20:53:04.317Z,19.73
2019-02-16T20:57:26.666Z,20.05
2019-02-16T21:01:48.932Z,23.05
2019-02-16T21:06:11.908Z,22.15
2019-02-16T21:10:50.524Z,22.47
2019-02-16T21:15:32.435Z,18.17
2019-02-16T21:19:44.759Z,19.70
2019-02-16T21:24:11.267Z,19.87
2019-02-16T21:28:32.106Z,20.40
2019-02-16T21:32:42.109Z,21.27
2019-02-16T21:37:11.857Z,17.90
2019-02-16T21:41:35.334Z,16.07
2019-02-16T21:45:57.460Z,16.13
2019-02-16T21:50:27.210Z,15.53
2019-02-16T21:54:39.273Z,15.43
2019-02-16T21:59:07.515Z,16.37
2019-02-16T22:03:33.683Z,17.48
2019-02-16T22:08:03.256Z,16.00
2019-02-16T22:12:26.729Z,15.55
2019-02-16T22:16:31.299Z,15.85
2019-02-16T22:20:35.835Z,16.20
2019-02-16T22:24:40.336Z,15.83
2019-02-16T22:28:44.868Z,15.40
2019-02-16T22:32:49.409Z,21.17
2019-02-16T22:36:53.959Z,16.35
2019-02-16T22:40:58.505Z,14.77
2019-02-16T22:45:03.005Z,18.57
2019-02-16T22:49:07.540Z,14.83
2019-02-16T22:53:12.117Z,18.60
2019-02-16T22:57:31.365Z,20.07
2019-02-16T23:01:36.016Z,15.23
2019-02-16T23:05:40.623Z,16.77
2019-02-16T23:09:45.183Z,17.20
2019-02-16T23:13:49.824Z,14.77
2019-02-16T23:20:42.772Z,16.27
2019-02-16T23:25:26.064Z,21.27
2019-02-16T23:30:25.012Z,15.80
2019-02-16T23:34:29.540Z,17.87
2019-02-16T23:41:56.990Z,22.73
2019-02-16T23:46:30.843Z,18.07
2019-02-16T23:50:35.406Z,17.07
2019-02-16T23:54:39.976Z,18.37
2019-02-16T23:58:49.375Z,20.77
